Terminal Aerodrome Forecast
Issued by NWS Cleveland, OH

Home | Current Version | Previous Version | Text Only | Print | Product List | Glossary On
Versions: 1 2 3 4 5 6 7 8 9 10 11 12 13 14 15 16
000
FTUS41 KCLE 261100
TAFMFD
TAF
KMFD 261120Z 2612/2712 35007KT P6SM SKC
     FM261600 01011KT P6SM SCT050
     FM262000 36011KT P6SM SCT045 BKN100
     FM270100 34006KT P6SM SCT045 OVC100
     FM270900 30005KT P6SM BKN045=

USA.gov is the U.S. government's official web portal to all federal, state and local government web resources and services.